Time;durP1;ratioP1;P1;durP2;ratioP2;P2;SDS_P1;SDS_P2;PMS_P1;PMS_P2;Temp;Humidity;BMP_temperature;BMP_pressure;BME280_temperature;BME280_humidity;BME280_pressure;Samples;Min_cycle;Max_cycle;Signal;HPM_P1;HPM_P2
2023/02/22 00:03:01;;;;;;;16.57;6.57;;;;;;;;;;6151505;23;20202;-91
2023/02/22 00:06:07;;;;;;;13.93;5.60;;;;;;;;;;6153260;23;20612;-91
2023/02/22 00:09:14;;;;;;;16.63;6.43;;;;;;;;;;6151374;23;20507;-90
2023/02/22 00:12:28;;;;;;;12.90;6.27;;;;;;;;;;6152531;23;20157;-87
2023/02/22 00:15:36;;;;;;;14.03;6.40;;;;;;;;;;6153613;23;20168;-89
2023/02/22 00:19:10;;;;;;;12.07;6.57;;;;;;;;;;6153330;23;20173;-90
2023/02/22 00:22:17;;;;;;;15.00;6.37;;;;;;;;;;6153091;23;20168;-90
2023/02/22 00:25:24;;;;;;;15.30;6.33;;;;;;;;;;6153534;23;20196;-90
2023/02/22 00:28:29;;;;;;;15.83;6.87;;;;;;;;;;6153647;23;20176;-89
2023/02/22 00:31:39;;;;;;;18.73;6.80;;;;;;;;;;6153329;23;20212;-92
2023/02/22 00:34:54;;;;;;;13.53;6.60;;;;;;;;;;6151503;23;20213;-93
2023/02/22 00:38:01;;;;;;;15.83;7.03;;;;;;;;;;6151316;23;20157;-90
2023/02/22 00:41:07;;;;;;;15.00;6.47;;;;;;;;;;6153117;23;20168;-90
2023/02/22 00:44:12;;;;;;;13.83;6.27;;;;;;;;;;6151946;23;20207;-89
2023/02/22 00:47:19;;;;;;;13.77;6.53;;;;;;;;;;6154295;23;20173;-90
2023/02/22 00:50:26;;;;;;;17.57;7.17;;;;;;;;;;6152551;23;20216;-91
2023/02/22 00:53:32;;;;;;;15.83;7.00;;;;;;;;;;6152292;23;20161;-90
2023/02/22 00:56:38;;;;;;;12.03;6.43;;;;;;;;;;6152974;23;20172;-90
2023/02/22 00:59:43;;;;;;;15.50;6.50;;;;;;;;;;6153206;23;20168;-89
2023/02/22 01:03:01;;;;;;;22.23;7.73;;;;;;;;;;6154427;23;20164;-89
2023/02/22 01:06:08;;;;;;;18.13;7.97;;;;;;;;;;6153670;23;20213;-92
2023/02/22 01:09:13;;;;;;;16.57;7.53;;;;;;;;;;6151357;23;20204;-90
2023/02/22 01:12:47;;;;;;;19.00;7.97;;;;;;;;;;6151179;23;20334;-92
2023/02/22 01:15:55;;;;;;;18.00;8.07;;;;;;;;;;6152149;23;20518;-88
2023/02/22 01:19:05;;;;;;;18.90;8.50;;;;;;;;;;6150556;23;20208;-90
2023/02/22 01:22:10;;;;;;;24.13;9.20;;;;;;;;;;6150677;23;20159;-90
2023/02/22 01:25:18;;;;;;;29.00;9.53;;;;;;;;;;6150816;23;20191;-89
2023/02/22 01:28:23;;;;;;;23.17;9.07;;;;;;;;;;6152115;23;20168;-91
2023/02/22 01:31:28;;;;;;;24.60;8.63;;;;;;;;;;6150708;23;20176;-89
2023/02/22 01:34:35;;;;;;;28.10;9.00;;;;;;;;;;6151339;23;20208;-91
2023/02/22 01:37:42;;;;;;;20.20;8.13;;;;;;;;;;6151075;23;20180;-93
2023/02/22 01:40:48;;;;;;;19.97;7.63;;;;;;;;;;6150821;23;20177;-88
2023/02/22 01:43:53;;;;;;;18.07;7.73;;;;;;;;;;6151748;23;20215;-89
2023/02/22 01:46:59;;;;;;;26.60;7.60;;;;;;;;;;6151265;23;20241;-90
2023/02/22 01:50:09;;;;;;;32.97;7.80;;;;;;;;;;6152734;23;20173;-91
2023/02/22 01:53:15;;;;;;;24.63;7.37;;;;;;;;;;6152412;23;20184;-91
2023/02/22 01:56:21;;;;;;;26.83;7.03;;;;;;;;;;6150916;23;20179;-89
2023/02/22 01:59:27;;;;;;;42.87;8.57;;;;;;;;;;6152899;23;20164;-88
2023/02/22 02:02:46;;;;;;;15.57;7.97;;;;;;;;;;6152580;23;20257;-87
2023/02/22 02:05:53;;;;;;;20.90;8.53;;;;;;;;;;6153385;23;20200;-91
2023/02/22 02:09:01;;;;;;;33.23;9.50;;;;;;;;;;6153227;23;20155;-92
2023/02/22 02:12:09;;;;;;;34.30;9.40;;;;;;;;;;6152962;23;20243;-89
2023/02/22 02:15:19;;;;;;;30.73;8.63;;;;;;;;;;6154691;23;20169;-89
2023/02/22 02:18:27;;;;;;;35.13;12.67;;;;;;;;;;6159601;23;20173;-88
2023/02/22 02:21:50;;;;;;;28.87;9.77;;;;;;;;;;6154786;23;20169;-89
2023/02/22 02:25:08;;;;;;;23.50;8.97;;;;;;;;;;6156066;23;20201;-91
2023/02/22 02:28:27;;;;;;;22.80;8.80;;;;;;;;;;6154883;23;20220;-90
2023/02/22 02:31:44;;;;;;;25.57;8.30;;;;;;;;;;6154481;23;20234;-90
2023/02/22 02:34:54;;;;;;;23.50;8.73;;;;;;;;;;6155768;23;20176;-89
2023/02/22 02:38:06;;;;;;;22.23;8.60;;;;;;;;;;6153781;23;20176;-90
2023/02/22 02:41:17;;;;;;;20.27;8.93;;;;;;;;;;6154973;23;20224;-91
2023/02/22 02:44:27;;;;;;;21.70;9.17;;;;;;;;;;6154224;23;20698;-90
2023/02/22 02:47:34;;;;;;;19.77;8.57;;;;;;;;;;6152765;23;20172;-88
2023/02/22 02:50:43;;;;;;;28.37;9.10;;;;;;;;;;6154051;23;20216;-89
2023/02/22 02:53:50;;;;;;;33.03;8.43;;;;;;;;;;6153170;23;20172;-89
2023/02/22 02:56:56;;;;;;;23.03;8.43;;;;;;;;;;6152108;23;20172;-89
2023/02/22 03:00:09;;;;;;;26.73;9.80;;;;;;;;;;6152925;23;20242;-89
2023/02/22 03:03:27;;;;;;;30.43;8.07;;;;;;;;;;6150354;23;20169;-90
2023/02/22 03:06:56;;;;;;;21.37;8.03;;;;;;;;;;6151622;23;20176;-91
2023/02/22 03:10:12;;;;;;;32.63;8.73;;;;;;;;;;6152371;23;20243;-90
2023/02/22 03:13:20;;;;;;;24.07;8.40;;;;;;;;;;6152547;23;20173;-90
2023/02/22 03:16:31;;;;;;;41.73;9.37;;;;;;;;;;6152107;23;20209;-89
2023/02/22 03:19:42;;;;;;;34.57;8.40;;;;;;;;;;6152320;23;20225;-91
2023/02/22 03:22:52;;;;;;;35.13;8.77;;;;;;;;;;6152358;23;20173;-89
2023/02/22 03:26:00;;;;;;;24.00;8.83;;;;;;;;;;6150567;23;20195;-90
2023/02/22 03:29:08;;;;;;;34.57;8.37;;;;;;;;;;6152245;23;20172;-88
2023/02/22 03:32:15;;;;;;;38.00;8.77;;;;;;;;;;6153309;23;20152;-92
2023/02/22 03:35:22;;;;;;;26.70;9.63;;;;;;;;;;6151943;23;20167;-89
2023/02/22 03:38:29;;;;;;;34.80;9.77;;;;;;;;;;6155099;23;20168;-92
2023/02/22 03:41:38;;;;;;;39.17;10.10;;;;;;;;;;6152621;23;20267;-90
2023/02/22 03:44:44;;;;;;;28.77;9.00;;;;;;;;;;6168405;23;20208;-90
2023/02/22 03:48:09;;;;;;;35.70;8.13;;;;;;;;;;6152589;23;20177;-89
2023/02/22 03:51:15;;;;;;;30.27;8.70;;;;;;;;;;6151489;23;20176;-92
2023/02/22 03:54:21;;;;;;;27.07;8.53;;;;;;;;;;6151975;23;20215;-88
2023/02/22 03:57:32;;;;;;;50.57;9.27;;;;;;;;;;6151247;23;20176;-89
2023/02/22 04:00:43;;;;;;;25.77;9.40;;;;;;;;;;6151689;23;20173;-93
2023/02/22 04:03:48;;;;;;;27.07;8.33;;;;;;;;;;6152548;23;20175;-90
2023/02/22 04:06:55;;;;;;;31.23;9.13;;;;;;;;;;6149676;23;20185;-90
2023/02/22 04:10:01;;;;;;;33.13;8.40;;;;;;;;;;6151353;23;20184;-89
2023/02/22 04:13:09;;;;;;;33.03;9.13;;;;;;;;;;6150601;23;20616;-90
2023/02/22 04:16:19;;;;;;;28.50;7.80;;;;;;;;;;6151729;23;20232;-93
2023/02/22 04:19:25;;;;;;;54.33;8.57;;;;;;;;;;6150801;23;20219;-89
2023/02/22 04:22:31;;;;;;;27.17;8.77;;;;;;;;;;6151586;23;20181;-92
2023/02/22 04:25:36;;;;;;;32.10;8.20;;;;;;;;;;6153988;23;20197;-88
2023/02/22 04:28:50;;;;;;;57.20;10.27;;;;;;;;;;6151977;23;20180;-90
2023/02/22 04:31:58;;;;;;;70.97;9.20;;;;;;;;;;6152489;23;20179;-89
2023/02/22 04:35:03;;;;;;;93.77;9.63;;;;;;;;;;6152509;23;20168;-88
2023/02/22 04:38:10;;;;;;;29.93;7.87;;;;;;;;;;6152198;23;20172;-92
2023/02/22 04:41:18;;;;;;;61.53;8.77;;;;;;;;;;6152188;23;20173;-91
2023/02/22 04:44:24;;;;;;;62.87;9.33;;;;;;;;;;6151566;23;20200;-88
2023/02/22 04:47:30;;;;;;;44.70;8.87;;;;;;;;;;6151965;23;20616;-89
2023/02/22 04:50:36;;;;;;;60.07;8.57;;;;;;;;;;6152699;23;20220;-92
2023/02/22 04:53:41;;;;;;;53.23;9.47;;;;;;;;;;6151186;23;20188;-89
2023/02/22 04:56:46;;;;;;;62.03;9.50;;;;;;;;;;6149671;23;20168;-91
2023/02/22 04:59:52;;;;;;;31.33;9.73;;;;;;;;;;6152140;23;20184;-90
2023/02/22 05:03:07;;;;;;;54.10;9.33;;;;;;;;;;6154194;23;20189;-87
2023/02/22 05:06:12;;;;;;;51.80;10.27;;;;;;;;;;6153261;23;20282;-90
2023/02/22 05:09:17;;;;;;;75.10;10.83;;;;;;;;;;6155345;23;20164;-90
2023/02/22 05:12:22;;;;;;;39.00;9.57;;;;;;;;;;6154249;23;20197;-91
2023/02/22 05:15:29;;;;;;;60.13;9.97;;;;;;;;;;6155516;23;20197;-90
2023/02/22 05:19:04;;;;;;;56.80;9.50;;;;;;;;;;6152900;23;20173;-90
2023/02/22 05:22:09;;;;;;;76.00;8.87;;;;;;;;;;6153237;23;20585;-92
2023/02/22 05:25:14;;;;;;;49.93;9.30;;;;;;;;;;6153626;23;20196;-90
2023/02/22 05:28:19;;;;;;;64.03;10.20;;;;;;;;;;6152124;23;20173;-92
2023/02/22 05:31:26;;;;;;;65.10;9.53;;;;;;;;;;6167931;23;20169;-90
2023/02/22 05:34:31;;;;;;;43.63;9.53;;;;;;;;;;6153339;23;20151;-88
2023/02/22 05:37:36;;;;;;;60.37;9.80;;;;;;;;;;6151693;23;20168;-91
2023/02/22 05:40:42;;;;;;;49.93;9.70;;;;;;;;;;6151330;23;20608;-90
2023/02/22 05:43:47;;;;;;;42.27;9.47;;;;;;;;;;6151965;23;20224;-90
2023/02/22 05:46:54;;;;;;;47.27;10.97;;;;;;;;;;6150817;23;20300;-88
2023/02/22 05:50:00;;;;;;;70.03;9.60;;;;;;;;;;6152601;23;20180;-91
2023/02/22 05:53:05;;;;;;;33.33;8.00;;;;;;;;;;6152421;23;20176;-90
2023/02/22 05:56:11;;;;;;;38.90;8.47;;;;;;;;;;6151664;23;20164;-90
2023/02/22 05:59:16;;;;;;;57.40;8.87;;;;;;;;;;6151800;23;20217;-89
2023/02/22 06:02:23;;;;;;;42.27;9.70;;;;;;;;;;6153704;23;20212;-89
2023/02/22 06:05:28;;;;;;;46.10;10.80;;;;;;;;;;6153200;23;20196;-90
2023/02/22 06:08:33;;;;;;;37.57;9.70;;;;;;;;;;6153213;23;20172;-91
2023/02/22 06:11:39;;;;;;;40.73;9.17;;;;;;;;;;6151752;23;20168;-90
2023/02/22 06:14:45;;;;;;;28.27;8.67;;;;;;;;;;6152656;23;20180;-92
2023/02/22 06:17:52;;;;;;;27.20;8.60;;;;;;;;;;6152613;23;20169;-91
2023/02/22 23:11:35;;;;;;;11.68;6.03;;;;;;;;;;6140914;23;20220;-87
2023/02/22 23:14:42;;;;;;;11.20;5.15;;;;;;;;;;6153337;23;20172;-87
2023/02/22 23:17:48;;;;;;;8.13;4.77;;;;;;;;;;6148330;23;20168;-89
2023/02/22 23:20:54;;;;;;;11.57;5.35;;;;;;;;;;6153698;23;20232;-88
2023/02/22 23:24:01;;;;;;;10.40;4.80;;;;;;;;;;6154098;23;20246;-88
2023/02/22 23:27:09;;;;;;;11.13;5.40;;;;;;;;;;6151314;23;20204;-88
2023/02/22 23:30:17;;;;;;;8.90;4.63;;;;;;;;;;6155059;23;20176;-88
2023/02/22 23:33:23;;;;;;;10.85;4.70;;;;;;;;;;6153318;23;20169;-89
2023/02/22 23:36:30;;;;;;;9.53;4.97;;;;;;;;;;6150219;23;20167;-89
2023/02/22 23:39:38;;;;;;;10.30;5.20;;;;;;;;;;6151184;23;20180;-89
2023/02/22 23:42:49;;;;;;;10.97;5.00;;;;;;;;;;6149665;23;20177;-87
2023/02/22 23:45:56;;;;;;;11.17;5.17;;;;;;;;;;6148086;23;20232;-90
2023/02/22 23:49:02;;;;;;;10.30;5.13;;;;;;;;;;6148364;23;20176;-89
2023/02/22 23:52:08;;;;;;;11.80;5.10;;;;;;;;;;6136618;23;20208;-89
2023/02/22 23:55:19;;;;;;;9.97;4.70;;;;;;;;;;6137167;23;20180;-89
2023/02/22 23:58:26;;;;;;;10.27;4.70;;;;;;;;;;6135606;23;20169;-90
